Philadelphia, Pennsylvania
Traffic Map
Current Weather Conditions
Philadelphia, Pennsylvania
Overcast Light Rain
Overcast
43°
Feels Like: 39°
Wind Chill: 39° Ceiling: 7000
Heat Index: 43° Visibility: 2.5mi
Dew Point: 40° Wind: 6mph
Humidity: 89% Direction: 220° (SW)
Pressure: 29.92in Gusts: 0mph
Raw Report DataKPHL 042027Z 22005KT 2 1/2SM -RA BR SCT010 BKN070 OVC090 06/04 A2992 RMK AO2 P0003 T00610044
Traffic Incident Summary
Active as of:
Severity:
Category:
InformationThere was an issue retrieving the traffic information for this location. Please try a different location or try again shortly.
Advertisements
Track Severe Weather on mobile